Map

Track Data

SID SEASON NUMBER BASIN SUBBASIN NAME ISO_TIME NATURE LAT LON WMO_WIND WMO_PRES WMO_AGENCY TRACK_TYPE DIST2LAND LANDFALL IFLAG USA_AGENCY USA_ATCF_ID USA_LAT USA_LON USA_RECORD USA_STATUS USA_WIND USA_PRES USA_SSHS USA_R34_NE USA_R34_SE USA_R34_SW USA_R34_NW USA_R50_NE USA_R50_SE USA_R50_SW USA_R50_NW USA_R64_NE USA_R64_SE USA_R64_SW USA_R64_NW USA_POCI USA_ROCI USA_RMW USA_EYE TOKYO_LAT TOKYO_LON TOKYO_GRADE TOKYO_WIND TOKYO_PRES TOKYO_R50_DIR TOKYO_R50_LONG TOKYO_R50_SHORT TOKYO_R30_DIR TOKYO_R30_LONG TOKYO_R30_SHORT TOKYO_LAND CMA_LAT CMA_LON CMA_CAT CMA_WIND CMA_PRES HKO_LAT HKO_LON HKO_CAT HKO_WIND HKO_PRES NEWDELHI_LAT NEWDELHI_LON NEWDELHI_GRADE NEWDELHI_WIND NEWDELHI_PRES NEWDELHI_CI NEWDELHI_DP NEWDELHI_POCI REUNION_LAT REUNION_LON REUNION_TYPE REUNION_WIND REUNION_PRES REUNION_TNUM REUNION_CI REUNION_RMW REUNION_R34_NE REUNION_R34_SE REUNION_R34_SW REUNION_R34_NW REUNION_R50_NE REUNION_R50_SE REUNION_R50_SW REUNION_R50_NW REUNION_R64_NE REUNION_R64_SE REUNION_R64_SW REUNION_R64_NW BOM_LAT BOM_LON BOM_TYPE BOM_WIND BOM_PRES BOM_TNUM BOM_CI BOM_RMW BOM_R34_NE BOM_R34_SE BOM_R34_SW BOM_R34_NW BOM_R50_NE BOM_R50_SE BOM_R50_SW BOM_R50_NW BOM_R64_NE BOM_R64_SE BOM_R64_SW BOM_R64_NW BOM_ROCI BOM_POCI BOM_EYE BOM_POS_METHOD BOM_PRES_METHOD NADI_LAT NADI_LON NADI_CAT NADI_WIND NADI_PRES WELLINGTON_LAT WELLINGTON_LON WELLINGTON_WIND WELLINGTON_PRES DS824_LAT DS824_LON DS824_STAGE DS824_WIND DS824_PRES TD9636_LAT TD9636_LON TD9636_STAGE TD9636_WIND TD9636_PRES TD9635_LAT TD9635_LON TD9635_WIND TD9635_PRES TD9635_ROCI NEUMANN_LAT NEUMANN_LON NEUMANN_CLASS NEUMANN_WIND NEUMANN_PRES MLC_LAT MLC_LON MLC_CLASS MLC_WIND MLC_PRES USA_GUST BOM_GUST BOM_GUST_PER REUNION_GUST REUNION_GUST_PER USA_SEAHGT USA_SEARAD_NE USA_SEARAD_SE USA_SEARAD_SW USA_SEARAD_NW STORM_SPEED STORM_DIR
1895245N18310 1895 30 NA NA NOT_NAMED 1895-09-01 12:00:00 TS 17.5000 -50.0000 main 1376 1376 _____________O -1 17.5000 -50.0000 TS 35 10 332
1895245N18310 1895 30 NA NA NOT_NAMED 1895-09-01 15:00:00 TS 17.9501 -50.2498 main 1421 1412 _____________P -1 17.9501 -50.2498 TS 37 10 332
1895245N18310 1895 30 NA NA NOT_NAMED 1895-09-01 18:00:00 TS 18.4000 -50.5000 main 1420 1418 _____________O -1 18.4000 -50.5000 TS 40 10 332
1895245N18310 1895 30 NA NA NOT_NAMED 1895-09-01 21:00:00 TS 18.8500 -50.7501 main 1422 1422 _____________P -1 18.8500 -50.7501 TS 40 10 332
1895245N18310 1895 30 NA NA NOT_NAMED 1895-09-02 00:00:00 TS 19.3000 -51.0000 main 1441 1441 _____________O -1 19.3000 -51.0000 TS 40 10 333
1895245N18310 1895 30 NA NA NOT_NAMED 1895-09-02 03:00:00 TS 19.7575 -51.2501 main 1455 1455 _____________P -1 19.7575 -51.2501 TS 40 10 332
1895245N18310 1895 30 NA NA NOT_NAMED 1895-09-02 06:00:00 TS 20.2000 -51.5000 main 1471 1466 _____________O -1 20.2000 -51.5000 TS 40 10 330
1895245N18310 1895 30 NA NA NOT_NAMED 1895-09-02 09:00:00 TS 20.6000 -51.7651 main 1466 1450 _____________P -1 20.6000 -51.7651 TS 40 9 330
1895245N18310 1895 30 NA NA NOT_NAMED 1895-09-02 12:00:00 TS 21.0000 -52.0000 main 1452 1440 _____________O -1 21.0000 -52.0000 TS 40 9 336
1895245N18310 1895 30 NA NA NOT_NAMED 1895-09-02 15:00:00 TS 21.4424 -52.1652 main 1440 1436 _____________P -1 21.4424 -52.1652 TS 42 9 343
1895245N18310 1895 30 NA NA NOT_NAMED 1895-09-02 18:00:00 TS 21.9000 -52.3000 main 1441 1432 _____________O -1 21.9000 -52.3000 TS 45 10 343
1895245N18310 1895 30 NA NA NOT_NAMED 1895-09-02 21:00:00 TS 22.3575 -52.4649 main 1435 1432 _____________P -1 22.3575 -52.4649 TS 45 9 343
1895245N18310 1895 30 NA NA NOT_NAMED 1895-09-03 00:00:00 TS 22.8000 -52.6000 main 1438 1438 _____________O -1 22.8000 -52.6000 TS 45 9 348
1895245N18310 1895 30 NA NA NOT_NAMED 1895-09-03 03:00:00 TS 23.2000 -52.6652 main 1443 1443 _____________P -1 23.2000 -52.6652 TS 45 8 354
1895245N18310 1895 30 NA NA NOT_NAMED 1895-09-03 06:00:00 TS 23.6000 -52.7000 main 1458 1458 _____________O -1 23.6000 -52.7000 TS 45 8 354
1895245N18310 1895 30 NA NA NOT_NAMED 1895-09-03 09:00:00 TS 24.0350 -52.7574 main 1466 1466 _____________P -1 24.0350 -52.7574 TS 45 9 355
1895245N18310 1895 30 NA NA NOT_NAMED 1895-09-03 12:00:00 TS 24.5000 -52.8000 main 1488 1488 _____________O -1 24.5000 -52.8000 TS 45 10 357
1895245N18310 1895 30 NA NA NOT_NAMED 1895-09-03 15:00:00 TS 24.9925 -52.8076 main 1512 1512 _____________P -1 24.9925 -52.8076 TS 47 10 1
1895245N18310 1895 30 NA NA NOT_NAMED 1895-09-03 18:00:00 TS 25.5000 -52.8000 main 1538 1538 _____________O -1 25.5000 -52.8000 TS 50 10 0
1895245N18310 1895 30 NA NA NOT_NAMED 1895-09-03 21:00:00 TS 26.0000 -52.8000 main 1566 1566 _____________P -1 26.0000 -52.8000 TS 50 10 1
1895245N18310 1895 30 NA NA NOT_NAMED 1895-09-04 00:00:00 TS 26.5000 -52.8000 main 1594 1594 _____________O -1 26.5000 -52.8000 TS 50 10 1
1895245N18310 1895 30 NA NA NOT_NAMED 1895-09-04 03:00:00 TS 27.0000 -52.8000 main 1625 1625 _____________P -1 27.0000 -52.8000 TS 50 10 1
1895245N18310 1895 30 NA NA NOT_NAMED 1895-09-04 06:00:00 TS 27.5000 -52.8000 main 1656 1656 _____________O -1 27.5000 -52.8000 TS 50 10 359
1895245N18310 1895 30 NA NA NOT_NAMED 1895-09-04 09:00:00 TS 27.9850 -52.8148 main 1689 1689 _____________P -1 27.9850 -52.8148 TS 50 10 1
1895245N18310 1895 30 NA NA NOT_NAMED 1895-09-04 12:00:00 TS 28.5000 -52.8000 main 1723 1723 _____________O -1 28.5000 -52.8000 TS 50 11 3
1895245N18310 1895 30 NA NA NOT_NAMED 1895-09-04 15:00:00 TS 29.0923 -52.7594 main 1765 1765 _____________P -1 29.0923 -52.7594 TS 50 12 8
1895245N18310 1895 30 NA NA NOT_NAMED 1895-09-04 18:00:00 TS 29.7000 -52.6000 main 1823 1823 _____________O -1 29.7000 -52.6000 TS 50 12 20
1895245N18310 1895 30 NA NA NOT_NAMED 1895-09-04 21:00:00 TS 30.2575 -52.2600 main 1816 1763 _____________P -1 30.2575 -52.2600 TS 50 13 32
1895245N18310 1895 30 NA NA NOT_NAMED 1895-09-05 00:00:00 TS 30.8000 -51.8000 main 1763 1710 _____________O -1 30.8000 -51.8000 TS 50 14 37
1895245N18310 1895 30 NA NA NOT_NAMED 1895-09-05 03:00:00 TS 31.3500 -51.3147 main 1710 1649 _____________P -1 31.3500 -51.3147 TS 50 14 38
1895245N18310 1895 30 NA NA NOT_NAMED 1895-09-05 06:00:00 TS 31.9000 -50.8000 main 1649 1598 _____________O -1 31.9000 -50.8000 TS 50 14 37
1895245N18310 1895 30 NA NA NOT_NAMED 1895-09-05 09:00:00 TS 32.4646 -50.3144 main 1588 1540 _____________P -1 32.4646 -50.3144 TS 50 14 37
1895245N18310 1895 30 NA NA NOT_NAMED 1895-09-05 12:00:00 TS 33.0000 -49.8000 main 1540 1505 _____________O -1 33.0000 -49.8000 TS 50 14 43
1895245N18310 1895 30 NA NA NOT_NAMED 1895-09-05 15:00:00 TS 33.4650 -49.2070 main 1496 1463 _____________P -1 33.4650 -49.2070 TS 50 13 48
1895245N18310 1895 30 NA NA NOT_NAMED 1895-09-05 18:00:00 TS 33.9000 -48.6000 main 1465 1431 _____________O -1 33.9000 -48.6000 TS 50 13 46
1895245N18310 1895 30 NA NA NOT_NAMED 1895-09-05 21:00:00 TS 34.3488 -48.0934 main 1433 1393 _____________P -1 34.3488 -48.0934 TS 50 13 45
1895245N18310 1895 30 NA NA NOT_NAMED 1895-09-06 00:00:00 TS 34.8000 -47.5000 main 1396 1375 _____________O -1 34.8000 -47.5000 TS 50 15 53
1895245N18310 1895 30 NA NA NOT_NAMED 1895-09-06 03:00:00 TS 35.2427 -46.6594 main 1379 1359 _____________P -1 35.2427 -46.6594 TS 50 17 59
1895245N18310 1895 30 NA NA NOT_NAMED 1895-09-06 06:00:00 TS 35.7000 -45.7000 main 1363 1350 _____________O -1 35.7000 -45.7000 TS 50 18 59
1895245N18310 1895 30 NA NA NOT_NAMED 1895-09-06 09:00:00 TS 36.1620 -44.7555 main 1349 1341 _____________P -1 36.1620 -44.7555 TS 47 18 57
1895245N18310 1895 30 NA NA NOT_NAMED 1895-09-06 12:00:00 TS 36.7000 -43.8000 main 1346 1330 _____________O -1 36.7000 -43.8000 TS 45 20 52
1895245N18310 1895 30 NA NA NOT_NAMED 1895-09-06 15:00:00 TS 37.3696 -42.8348 main 1332 1320 _____________P -1 37.3696 -42.8348 TS 45 21 47
1895245N18310 1895 30 NA NA NOT_NAMED 1895-09-06 18:00:00 TS 38.1000 -41.9000 main 1320 1310 _____________O -1 38.1000 -41.9000 TS 45 20 44
1895245N18310 1895 30 NA NA NOT_NAMED 1895-09-06 21:00:00 TS 38.7983 -41.0620 main 1310 1305 _____________P -1 38.7983 -41.0620 TS 45 19 43
1895245N18310 1895 30 NA NA NOT_NAMED 1895-09-07 00:00:00 TS 39.5000 -40.2000 main 1312 1310 _____________O -1 39.5000 -40.2000 TS 45 20 46
1895245N18310 1895 30 NA NA NOT_NAMED 1895-09-07 03:00:00 TS 40.2073 -39.1791 main 1326 1326 _____________P -1 40.2073 -39.1791 TS 45 21 49
1895245N18310 1895 30 NA NA NOT_NAMED 1895-09-07 06:00:00 TS 40.9000 -38.1000 main 1355 1355 _____________O -1 40.9000 -38.1000 TS 45 21 51
1895245N18310 1895 30 NA NA NOT_NAMED 1895-09-07 09:00:00 TS 41.5201 -37.0025 main 1397 1397 _____________P -1 41.5201 -37.0025 TS 42 20 50
1895245N18310 1895 30 NA NA NOT_NAMED 1895-09-07 12:00:00 TS 42.2000 -36.0000 main 1426 1426 _____________O -1 42.2000 -36.0000 TS 40 20 41
1895245N18310 1895 30 NA NA NOT_NAMED 1895-09-07 15:00:00 TS 43.0610 -35.2026 main 1437 1437 _____________P -1 43.0610 -35.2026 TS 40 21 31
1895245N18310 1895 30 NA NA NOT_NAMED 1895-09-07 18:00:00 TS 44.0000 -34.5000 main 1447 1443 _____________O -1 44.0000 -34.5000 TS 40 21 29
1895245N18310 1895 30 NA NA NOT_NAMED 1895-09-07 21:00:00 TS 44.9145 -33.7483 main 1473 1469 _____________P -1 44.9145 -33.7483 TS 45 21 31
1895245N18310 1895 30 NA NA NOT_NAMED 1895-09-08 00:00:00 ET 45.8000 -33.0000 main 1497 1497 _____________O -1 45.8000 -33.0000 EX 50 20 32
1895245N18310 1895 30 NA NA NOT_NAMED 1895-09-08 03:00:00 ET 46.6145 -32.2472 main 1537 1535 _____________P -1 46.6145 -32.2472 EX 52 19 33
1895245N18310 1895 30 NA NA NOT_NAMED 1895-09-08 06:00:00 ET 47.4000 -31.5000 main 1574 1497 _____________O -1 47.4000 -31.5000 EX 55 19 33
1895245N18310 1895 30 NA NA NOT_NAMED 1895-09-08 09:00:00 ET 48.1960 -30.7551 main 1497 1408 _____________P -1 48.1960 -30.7551 EX 57 19 32
1895245N18310 1895 30 NA NA NOT_NAMED 1895-09-08 12:00:00 ET 49.0000 -30.0000 main 1408 _____________O -1 49.0000 -30.0000 EX 60 985 19 32

About IBTrACS Database

This database is a web-friendly format of International Best Track Archive for Climate Stewardship (IBTrACS), a global best track data archive curated by NOAA dating back to 1842.

Updated: 2021-12-03